createdAt,value
2017-01-06T00:00:31.987Z,1024.46
2017-01-06T00:01:12.532Z,1024.41
2017-01-06T00:01:53.031Z,1024.47
2017-01-06T00:02:33.613Z,1024.48
2017-01-06T00:03:14.138Z,1024.51
2017-01-06T00:03:54.618Z,1024.5
2017-01-06T00:04:35.165Z,1024.46
2017-01-06T00:05:15.672Z,1024.46
2017-01-06T00:05:56.240Z,1024.44
2017-01-06T00:06:36.782Z,1024.47
2017-01-06T00:07:17.299Z,1024.45
2017-01-06T00:07:57.839Z,1024.53
2017-01-06T00:08:38.352Z,1024.47
2017-01-06T00:09:18.876Z,1024.45
2017-01-06T00:09:59.421Z,1024.46
2017-01-06T00:10:39.961Z,1024.52
2017-01-06T00:11:20.472Z,1024.46
2017-01-06T00:12:01.004Z,1024.46
2017-01-06T00:12:41.546Z,1024.52
2017-01-06T00:13:22.097Z,1024.51
2017-01-06T00:14:02.625Z,1024.48
2017-01-06T00:14:43.156Z,1024.52
2017-01-06T00:15:23.688Z,1024.5
2017-01-06T00:16:04.258Z,1024.51
2017-01-06T00:16:44.787Z,1024.5
2017-01-06T00:17:25.328Z,1024.54
2017-01-06T00:18:05.877Z,1024.51
2017-01-06T00:18:46.455Z,1024.5
2017-01-06T00:19:26.952Z,1024.47
2017-01-06T00:20:07.475Z,1024.51
2017-01-06T00:20:48.024Z,1024.51
2017-01-06T00:21:28.528Z,1024.47
2017-01-06T00:22:09.062Z,1024.52
2017-01-06T00:22:49.578Z,1024.54
2017-01-06T00:23:30.125Z,1024.49
2017-01-06T00:24:10.665Z,1024.52
2017-01-06T00:24:51.202Z,1024.52
2017-01-06T00:25:31.724Z,1024.48
2017-01-06T00:26:12.293Z,1024.47
2017-01-06T00:26:52.818Z,1024.46
2017-01-06T00:27:33.370Z,1024.46
2017-01-06T00:28:13.937Z,1024.41
2017-01-06T00:28:54.453Z,1024.44
2017-01-06T00:29:34.941Z,1024.42
2017-01-06T00:30:15.461Z,1024.4
2017-01-06T00:30:55.999Z,1024.47
2017-01-06T00:31:36.551Z,1024.42
2017-01-06T00:32:17.065Z,1024.41
2017-01-06T00:32:57.596Z,1024.4
2017-01-06T00:33:38.137Z,1024.44
2017-01-06T00:34:18.658Z,1024.4
2017-01-06T00:34:59.184Z,1024.43
2017-01-06T00:35:39.722Z,1024.42
2017-01-06T00:36:20.283Z,1024.39
2017-01-06T00:37:00.793Z,1024.42
2017-01-06T00:37:41.303Z,1024.4
2017-01-06T00:38:21.872Z,1024.39
2017-01-06T00:39:02.405Z,1024.34
2017-01-06T00:39:42.952Z,1024.33
2017-01-06T00:40:23.420Z,1024.37
2017-01-06T00:41:03.953Z,1024.38
2017-01-06T00:41:44.496Z,1024.34
2017-01-06T00:42:24.987Z,1024.36
2017-01-06T00:43:05.517Z,1024.32
2017-01-06T00:43:46.103Z,1024.31
2017-01-06T00:44:26.590Z,1024.4
2017-01-06T00:45:07.123Z,1024.36
2017-01-06T00:45:47.632Z,1024.42
2017-01-06T00:46:28.209Z,1024.38
2017-01-06T00:47:08.739Z,1024.36
2017-01-06T00:47:49.243Z,1024.37
2017-01-06T00:48:29.845Z,1024.38
2017-01-06T00:49:10.310Z,1024.37
2017-01-06T00:49:50.833Z,1024.39
2017-01-06T00:50:31.367Z,1024.41
2017-01-06T00:51:11.886Z,1024.37
2017-01-06T00:51:52.434Z,1024.39
2017-01-06T00:52:32.936Z,1024.41
2017-01-06T00:53:13.454Z,1024.36
2017-01-06T00:53:53.981Z,1024.39
2017-01-06T00:54:34.488Z,1024.35
2017-01-06T00:55:15.041Z,1024.39
2017-01-06T00:55:55.537Z,1024.42
2017-01-06T00:56:36.048Z,1024.39
2017-01-06T00:57:16.609Z,1024.34
2017-01-06T00:57:57.137Z,1024.38
2017-01-06T00:58:37.683Z,1024.35
2017-01-06T00:59:18.207Z,1024.41
2017-01-06T00:59:58.749Z,1024.38
2017-01-06T01:00:39.227Z,1024.39
2017-01-06T01:01:19.746Z,1024.41
2017-01-06T01:02:00.314Z,1024.41
2017-01-06T01:02:40.814Z,1024.47
2017-01-06T01:03:21.345Z,1024.44
2017-01-06T01:04:01.897Z,1024.49
2017-01-06T01:04:42.408Z,1024.42
2017-01-06T01:05:23.475Z,1024.47
2017-01-06T01:06:04.017Z,1024.44
2017-01-06T01:06:44.497Z,1024.39
2017-01-06T01:07:25.044Z,1024.44
2017-01-06T01:08:05.589Z,1024.43
2017-01-06T01:08:46.241Z,1024.38
2017-01-06T01:09:26.797Z,1024.49
2017-01-06T01:10:07.290Z,1024.41
2017-01-06T01:10:47.912Z,1024.5
2017-01-06T01:11:28.405Z,1024.44
2017-01-06T01:12:08.927Z,1024.51
2017-01-06T01:12:49.454Z,1024.47
2017-01-06T01:13:29.972Z,1024.51
2017-01-06T01:14:10.537Z,1024.53
2017-01-06T01:14:51.035Z,1024.5
2017-01-06T01:15:31.567Z,1024.48
2017-01-06T01:16:12.092Z,1024.53
2017-01-06T01:16:52.631Z,1024.58
2017-01-06T01:17:33.173Z,1024.56
2017-01-06T01:18:13.730Z,1024.59
2017-01-06T01:18:54.245Z,1024.53
2017-01-06T01:19:34.778Z,1024.55
2017-01-06T01:20:15.270Z,1024.54
2017-01-06T01:20:55.806Z,1024.51
2017-01-06T01:21:36.329Z,1024.57
2017-01-06T01:22:16.857Z,1024.54
2017-01-06T01:22:57.376Z,1024.53
2017-01-06T01:23:37.890Z,1024.5
2017-01-06T01:24:18.443Z,1024.47
2017-01-06T01:24:59.003Z,1024.48
2017-01-06T01:25:39.514Z,1024.5
2017-01-06T01:26:20.059Z,1024.45
2017-01-06T01:27:00.608Z,1024.46
2017-01-06T01:27:41.132Z,1024.43
2017-01-06T01:28:21.697Z,1024.49
2017-01-06T01:29:02.241Z,1024.51
2017-01-06T01:29:42.795Z,1024.54
2017-01-06T01:30:23.293Z,1024.52
2017-01-06T01:31:03.832Z,1024.56
2017-01-06T01:31:44.332Z,1024.56
2017-01-06T01:32:24.890Z,1024.55
2017-01-06T01:33:05.388Z,1024.59
2017-01-06T01:33:45.880Z,1024.59
2017-01-06T01:34:26.472Z,1024.59
2017-01-06T01:35:06.990Z,1024.62
2017-01-06T01:35:47.523Z,1024.58
2017-01-06T01:36:28.044Z,1024.6
2017-01-06T01:37:08.573Z,1024.61
2017-01-06T01:37:49.121Z,1024.6
2017-01-06T01:38:29.649Z,1024.6
2017-01-06T01:39:10.147Z,1024.59
2017-01-06T01:39:50.636Z,1024.57
2017-01-06T01:40:31.153Z,1024.61
2017-01-06T01:41:11.723Z,1024.64
2017-01-06T01:41:52.260Z,1024.57
2017-01-06T01:42:32.784Z,1024.59
2017-01-06T01:43:13.324Z,1024.61
2017-01-06T01:43:53.820Z,1024.58
2017-01-06T01:44:34.332Z,1024.58
2017-01-06T01:45:14.903Z,1024.63
2017-01-06T01:45:55.420Z,1024.62
2017-01-06T01:46:35.955Z,1024.66
2017-01-06T01:47:16.501Z,1024.62
2017-01-06T01:47:56.994Z,1024.65
2017-01-06T01:48:37.537Z,1024.65
2017-01-06T01:49:18.048Z,1024.67
2017-01-06T01:49:58.575Z,1024.74
2017-01-06T01:50:39.097Z,1024.69
2017-01-06T01:51:19.646Z,1024.68
2017-01-06T01:52:00.219Z,1024.68
2017-01-06T01:52:40.736Z,1024.62
2017-01-06T01:53:21.269Z,1024.56
2017-01-06T01:54:01.773Z,1024.6
2017-01-06T01:54:42.303Z,1024.6
2017-01-06T01:55:22.854Z,1024.6
2017-01-06T01:56:03.406Z,1024.64
2017-01-06T01:56:43.925Z,1024.62
2017-01-06T01:57:24.433Z,1024.62
2017-01-06T01:58:04.977Z,1024.66
2017-01-06T01:58:45.479Z,1024.61
2017-01-06T01:59:25.992Z,1024.61
2017-01-06T02:00:06.521Z,1024.61
2017-01-06T02:00:47.061Z,1024.66
2017-01-06T02:01:27.598Z,1024.65
2017-01-06T02:02:08.122Z,1024.67
2017-01-06T02:02:48.669Z,1024.69
2017-01-06T02:03:29.165Z,1024.7
2017-01-06T02:04:09.705Z,1024.78
2017-01-06T02:04:50.228Z,1024.78
2017-01-06T02:05:30.707Z,1024.79
2017-01-06T02:06:11.273Z,1024.85
2017-01-06T02:06:51.806Z,1024.87
2017-01-06T02:07:32.328Z,1024.87
2017-01-06T02:08:12.827Z,1024.85
2017-01-06T02:08:53.319Z,1024.81
2017-01-06T02:09:33.865Z,1024.87
2017-01-06T02:10:14.386Z,1024.87
2017-01-06T02:10:54.962Z,1024.88
2017-01-06T02:11:35.522Z,1024.87
2017-01-06T02:12:16.038Z,1024.86
2017-01-06T02:12:56.575Z,1024.84
2017-01-06T02:13:37.089Z,1024.86
2017-01-06T02:14:17.628Z,1024.86
2017-01-06T02:14:58.155Z,1024.83
2017-01-06T02:15:38.724Z,1024.85
2017-01-06T02:16:19.254Z,1024.85
2017-01-06T02:16:59.745Z,1024.9
2017-01-06T02:17:40.281Z,1024.89
2017-01-06T02:18:20.811Z,1024.82
2017-01-06T02:19:01.333Z,1024.85
2017-01-06T02:19:41.869Z,1024.88
2017-01-06T02:20:22.421Z,1024.89
2017-01-06T02:21:02.927Z,1024.8
2017-01-06T02:21:43.478Z,1024.85
2017-01-06T02:22:24.031Z,1024.84
2017-01-06T02:23:04.554Z,1024.89
2017-01-06T02:23:45.072Z,1024.88
2017-01-06T02:24:25.642Z,1024.84
2017-01-06T02:25:06.184Z,1024.88
2017-01-06T02:25:46.718Z,1024.84
2017-01-06T02:26:27.261Z,1024.83
2017-01-06T02:27:07.830Z,1024.88
2017-01-06T02:27:48.349Z,1024.9
2017-01-06T02:28:28.903Z,1024.87
2017-01-06T02:29:09.397Z,1024.89
2017-01-06T02:29:49.924Z,1024.85
2017-01-06T02:30:30.434Z,1024.82
2017-01-06T02:31:10.964Z,1024.81
2017-01-06T02:31:51.543Z,1024.82
2017-01-06T02:32:32.068Z,1024.76
2017-01-06T02:33:12.580Z,1024.85
2017-01-06T02:33:53.163Z,1024.8
2017-01-06T02:34:33.666Z,1024.84
2017-01-06T02:35:14.192Z,1024.83
2017-01-06T02:35:54.740Z,1024.81
2017-01-06T02:36:35.266Z,1024.86
2017-01-06T02:37:15.770Z,1024.83
2017-01-06T02:37:56.309Z,1024.87
2017-01-06T02:38:36.844Z,1024.8
2017-01-06T02:39:17.373Z,1024.86
2017-01-06T02:39:57.925Z,1024.88
2017-01-06T02:40:38.447Z,1024.85
2017-01-06T02:41:18.983Z,1024.84
2017-01-06T02:41:59.504Z,1024.88
2017-01-06T02:42:40.052Z,1024.87
2017-01-06T02:43:20.564Z,1024.84
2017-01-06T02:44:01.128Z,1024.85
2017-01-06T02:44:41.633Z,1024.85
2017-01-06T02:45:22.175Z,1024.88
2017-01-06T02:46:02.731Z,1024.86
2017-01-06T02:46:43.280Z,1024.92
2017-01-06T02:47:23.797Z,1024.9
2017-01-06T02:48:04.321Z,1024.94
2017-01-06T02:48:44.871Z,1024.95
2017-01-06T02:49:25.479Z,1024.96
2017-01-06T02:50:06.026Z,1024.99
2017-01-06T02:50:46.546Z,1025
2017-01-06T02:51:27.107Z,1024.95
2017-01-06T02:52:07.603Z,1025.01
2017-01-06T02:52:48.115Z,1024.97
2017-01-06T02:53:28.670Z,1025.01
2017-01-06T02:54:09.190Z,1025.02
2017-01-06T02:54:49.766Z,1025.06
2017-01-06T02:55:30.284Z,1025.06
2017-01-06T02:56:10.769Z,1025.08
2017-01-06T02:56:51.306Z,1025.06
2017-01-06T02:57:31.868Z,1025.05
2017-01-06T02:58:12.349Z,1025.06
2017-01-06T02:58:52.884Z,1025.06
2017-01-06T02:59:33.405Z,1025.08
2017-01-06T03:00:13.962Z,1025.02
2017-01-06T03:00:54.496Z,1025.04
2017-01-06T03:01:35.028Z,1025.02
2017-01-06T03:02:15.558Z,1025.01
2017-01-06T03:02:56.063Z,1024.99
2017-01-06T03:03:36.594Z,1025.02
2017-01-06T03:04:17.109Z,1024.98
2017-01-06T03:04:57.656Z,1025.03
2017-01-06T03:05:38.184Z,1025.04
2017-01-06T03:06:18.718Z,1025.03
2017-01-06T03:06:59.275Z,1025
2017-01-06T03:07:39.793Z,1025.03
2017-01-06T03:08:20.311Z,1024.98
2017-01-06T03:09:00.853Z,1024.96
2017-01-06T03:09:41.377Z,1025
2017-01-06T03:10:21.916Z,1025
2017-01-06T03:11:02.440Z,1025.03
2017-01-06T03:11:42.944Z,1025.01
2017-01-06T03:12:23.467Z,1025.01
2017-01-06T03:13:03.961Z,1025.01
2017-01-06T03:13:44.514Z,1025.03
2017-01-06T03:14:25.025Z,1025.04
2017-01-06T03:15:05.555Z,1025.02
2017-01-06T03:15:46.110Z,1025.09
2017-01-06T03:16:26.617Z,1025.07
2017-01-06T03:17:07.155Z,1025.03
2017-01-06T03:17:47.682Z,1025.06
2017-01-06T03:18:28.223Z,1025.1
2017-01-06T03:19:08.784Z,1025.1
2017-01-06T03:19:49.289Z,1025.04
2017-01-06T03:20:29.820Z,1025.05
2017-01-06T03:21:10.332Z,1025.11
2017-01-06T03:21:50.878Z,1025.08
2017-01-06T03:22:31.443Z,1025.08
2017-01-06T03:23:11.997Z,1025.06
2017-01-06T03:23:52.574Z,1025.05
2017-01-06T03:24:33.056Z,1025.1
2017-01-06T03:25:13.595Z,1025.1
2017-01-06T03:25:54.098Z,1025.11
2017-01-06T03:26:34.636Z,1025.13
2017-01-06T03:27:15.168Z,1025.14
2017-01-06T03:27:55.719Z,1025.17
2017-01-06T03:28:36.174Z,1025.16
2017-01-06T03:29:16.707Z,1025.23
2017-01-06T03:29:57.277Z,1025.17
2017-01-06T03:30:37.789Z,1025.2
2017-01-06T03:31:18.278Z,1025.22
2017-01-06T03:31:58.832Z,1025.18
2017-01-06T03:32:39.401Z,1025.13
2017-01-06T03:33:19.900Z,1025.16
2017-01-06T03:34:00.445Z,1025.18
2017-01-06T03:34:40.963Z,1025.16
2017-01-06T03:35:21.480Z,1025.14
2017-01-06T03:36:01.985Z,1025.13
2017-01-06T03:36:42.554Z,1025.18
2017-01-06T03:37:23.069Z,1025.21
2017-01-06T03:38:03.600Z,1025.16
2017-01-06T03:38:44.118Z,1025.22
2017-01-06T03:39:24.634Z,1025.22
2017-01-06T03:40:05.199Z,1025.2
2017-01-06T03:40:45.685Z,1025.27
2017-01-06T03:41:26.203Z,1025.19
2017-01-06T03:42:06.713Z,1025.21
2017-01-06T03:42:47.230Z,1025.21
2017-01-06T03:43:27.830Z,1025.28
2017-01-06T03:44:08.335Z,1025.25
2017-01-06T03:44:48.887Z,1025.28
2017-01-06T03:45:29.416Z,1025.27
2017-01-06T03:46:09.938Z,1025.27
2017-01-06T03:46:50.486Z,1025.28
2017-01-06T03:47:31.013Z,1025.31
2017-01-06T03:48:11.534Z,1025.24
2017-01-06T03:48:52.042Z,1025.36
2017-01-06T03:49:32.560Z,1025.32
2017-01-06T03:50:13.078Z,1025.3
2017-01-06T03:50:53.635Z,1025.33
2017-01-06T03:51:34.152Z,1025.3
2017-01-06T03:52:14.653Z,1025.31
2017-01-06T03:52:55.199Z,1025.3
2017-01-06T03:53:35.751Z,1025.29
2017-01-06T03:54:16.261Z,1025.27
2017-01-06T03:54:56.775Z,1025.26
2017-01-06T03:55:37.305Z,1025.24
2017-01-06T03:56:17.828Z,1025.22
2017-01-06T03:56:58.460Z,1025.25
2017-01-06T03:57:38.975Z,1025.25
2017-01-06T03:58:19.494Z,1025.25
2017-01-06T03:59:00.016Z,1025.23
2017-01-06T03:59:40.556Z,1025.28
2017-01-06T04:00:21.045Z,1025.21
2017-01-06T04:01:01.572Z,1025.18
2017-01-06T04:01:42.116Z,1025.22
2017-01-06T04:02:22.667Z,1025.19
2017-01-06T04:03:03.221Z,1025.2
2017-01-06T04:03:43.759Z,1025.19
2017-01-06T04:04:24.284Z,1025.25
2017-01-06T04:05:04.796Z,1025.24
2017-01-06T04:05:45.318Z,1025.22
2017-01-06T04:06:25.873Z,1025.23
2017-01-06T04:07:06.420Z,1025.23
2017-01-06T04:07:46.964Z,1025.23
2017-01-06T04:08:27.523Z,1025.22
2017-01-06T04:09:07.989Z,1025.17
2017-01-06T04:09:48.536Z,1025.18
2017-01-06T04:10:29.072Z,1025.2
2017-01-06T04:11:09.662Z,1025.17
2017-01-06T04:11:50.148Z,1025.19
2017-01-06T04:12:30.639Z,1025.13
2017-01-06T04:13:11.171Z,1025.13
2017-01-06T04:13:51.731Z,1025.16
2017-01-06T04:14:32.267Z,1025.19
2017-01-06T04:15:12.783Z,1025.16
2017-01-06T04:15:53.314Z,1025.1
2017-01-06T04:16:33.832Z,1025.12
2017-01-06T04:17:14.432Z,1025.18
2017-01-06T04:17:54.935Z,1025.17
2017-01-06T04:18:35.469Z,1025.2
2017-01-06T04:19:16.005Z,1025.23
2017-01-06T04:19:56.537Z,1025.17
2017-01-06T04:20:37.043Z,1025.18
2017-01-06T04:21:17.579Z,1025.21
2017-01-06T04:21:58.103Z,1025.23
2017-01-06T04:22:38.637Z,1025.24
2017-01-06T04:23:19.198Z,1025.17
2017-01-06T04:23:59.813Z,1025.26
2017-01-06T04:24:40.331Z,1025.22
2017-01-06T04:25:20.855Z,1025.2
2017-01-06T04:26:01.377Z,1025.28
2017-01-06T04:26:41.871Z,1025.29
2017-01-06T04:27:22.406Z,1025.34
2017-01-06T04:28:02.937Z,1025.31
2017-01-06T04:28:43.460Z,1025.29
2017-01-06T04:29:23.964Z,1025.33
2017-01-06T04:30:04.505Z,1025.3
2017-01-06T04:30:45.051Z,1025.28
2017-01-06T04:31:25.601Z,1025.31
2017-01-06T04:32:06.131Z,1025.3
2017-01-06T04:32:46.676Z,1025.36
2017-01-06T04:33:27.219Z,1025.34
2017-01-06T04:34:07.737Z,1025.33
2017-01-06T04:34:48.283Z,1025.38
2017-01-06T04:35:28.827Z,1025.34
2017-01-06T04:36:09.392Z,1025.3
2017-01-06T04:36:49.914Z,1025.33
2017-01-06T04:37:30.443Z,1025.31
2017-01-06T04:38:10.939Z,1025.29
2017-01-06T04:38:51.511Z,1025.37
2017-01-06T04:39:32.029Z,1025.4
2017-01-06T04:40:12.542Z,1025.37
2017-01-06T04:40:53.037Z,1025.38
2017-01-06T04:41:33.565Z,1025.38
2017-01-06T04:42:14.107Z,1025.42
2017-01-06T04:42:54.640Z,1025.4
2017-01-06T04:43:35.157Z,1025.44
2017-01-06T04:44:15.691Z,1025.44
2017-01-06T04:44:56.201Z,1025.46
2017-01-06T04:45:36.725Z,1025.46
2017-01-06T04:46:17.236Z,1025.43
2017-01-06T04:46:57.761Z,1025.45
2017-01-06T04:47:38.280Z,1025.48
2017-01-06T04:48:18.857Z,1025.46
2017-01-06T04:48:59.366Z,1025.46
2017-01-06T04:49:39.897Z,1025.49
2017-01-06T04:50:20.415Z,1025.55
2017-01-06T04:51:00.951Z,1025.54
2017-01-06T04:51:41.505Z,1025.52
2017-01-06T04:52:22.062Z,1025.56
2017-01-06T04:53:02.585Z,1025.57
2017-01-06T04:53:43.097Z,1025.57
2017-01-06T04:54:23.625Z,1025.55
2017-01-06T04:55:04.159Z,1025.56
2017-01-06T04:55:44.707Z,1025.57
2017-01-06T04:56:25.239Z,1025.59
2017-01-06T04:57:05.819Z,1025.65
2017-01-06T04:57:46.351Z,1025.65
2017-01-06T04:58:26.865Z,1025.7
2017-01-06T04:59:07.415Z,1025.68
2017-01-06T04:59:47.876Z,1025.68
2017-01-06T05:00:28.441Z,1025.66
2017-01-06T05:01:08.955Z,1025.71
2017-01-06T05:01:49.479Z,1025.67
2017-01-06T05:02:30.028Z,1025.66
2017-01-06T05:03:10.551Z,1025.65
2017-01-06T05:03:51.100Z,1025.69
2017-01-06T05:04:31.650Z,1025.65
2017-01-06T05:05:12.194Z,1025.68
2017-01-06T05:05:52.706Z,1025.75
2017-01-06T05:06:33.239Z,1025.69
2017-01-06T05:07:13.799Z,1025.68
2017-01-06T05:07:54.321Z,1025.71
2017-01-06T05:08:34.849Z,1025.67
2017-01-06T05:09:15.383Z,1025.67
2017-01-06T05:09:55.895Z,1025.66
2017-01-06T05:10:36.396Z,1025.69
2017-01-06T05:11:16.967Z,1025.73
2017-01-06T05:11:57.495Z,1025.68
2017-01-06T05:12:37.997Z,1025.7
2017-01-06T05:13:18.543Z,1025.73
2017-01-06T05:13:59.051Z,1025.74
2017-01-06T05:14:39.584Z,1025.74
2017-01-06T05:15:20.109Z,1025.79
2017-01-06T05:16:00.625Z,1025.74
2017-01-06T05:16:41.179Z,1025.76
2017-01-06T05:17:21.699Z,1025.76
2017-01-06T05:18:02.225Z,1025.82
2017-01-06T05:18:42.769Z,1025.76
2017-01-06T05:19:23.304Z,1025.79
2017-01-06T05:20:03.817Z,1025.8
2017-01-06T05:20:44.334Z,1025.88
2017-01-06T05:21:24.887Z,1025.87
2017-01-06T05:22:05.386Z,1025.85
2017-01-06T05:22:45.935Z,1025.86
2017-01-06T05:23:26.473Z,1025.87
2017-01-06T05:24:07.009Z,1025.82
2017-01-06T05:24:47.547Z,1025.87
2017-01-06T05:25:28.055Z,1025.83
2017-01-06T05:26:08.602Z,1025.84
2017-01-06T05:26:49.129Z,1025.91
2017-01-06T05:27:29.677Z,1025.87
2017-01-06T05:28:10.181Z,1025.89
2017-01-06T05:28:50.705Z,1025.79
2017-01-06T05:29:31.258Z,1025.87
2017-01-06T05:30:11.807Z,1025.88
2017-01-06T05:30:52.313Z,1025.9
2017-01-06T05:31:32.878Z,1025.91
2017-01-06T05:32:13.419Z,1025.85
2017-01-06T05:32:53.905Z,1025.9
2017-01-06T05:33:34.447Z,1025.89
2017-01-06T05:34:14.990Z,1025.91
2017-01-06T05:34:55.513Z,1025.88
2017-01-06T05:35:36.052Z,1025.93
2017-01-06T05:36:16.571Z,1025.94
2017-01-06T05:36:57.105Z,1025.89
2017-01-06T05:37:37.644Z,1025.95
2017-01-06T05:38:18.200Z,1025.98
2017-01-06T05:38:58.749Z,1026.01
2017-01-06T05:39:39.283Z,1026.06
2017-01-06T05:40:19.818Z,1026.02
2017-01-06T05:41:00.333Z,1026.03
2017-01-06T05:41:40.841Z,1025.97
2017-01-06T05:42:21.375Z,1025.99
2017-01-06T05:43:01.950Z,1025.97
2017-01-06T05:43:42.492Z,1025.96
2017-01-06T05:44:23.030Z,1025.94
2017-01-06T05:45:03.579Z,1025.98
2017-01-06T05:45:44.128Z,1025.99
2017-01-06T05:46:24.642Z,1025.99
2017-01-06T05:47:05.206Z,1026.02
2017-01-06T05:47:45.705Z,1026
2017-01-06T05:48:26.250Z,1026.03
2017-01-06T05:49:06.771Z,1025.99
2017-01-06T05:49:47.325Z,1025.99
2017-01-06T05:50:27.856Z,1026.02
2017-01-06T05:51:08.410Z,1026.01
2017-01-06T05:51:48.937Z,1026.02
2017-01-06T05:52:29.461Z,1026.03
2017-01-06T05:53:09.986Z,1026.02
2017-01-06T05:53:50.553Z,1026.01
2017-01-06T05:54:31.072Z,1026.03
2017-01-06T05:55:11.643Z,1026.04
2017-01-06T05:55:52.114Z,1026.03
2017-01-06T05:56:32.662Z,1026.08
2017-01-06T05:57:13.172Z,1026.06
2017-01-06T05:57:53.715Z,1026.02
2017-01-06T05:58:34.250Z,1026.05
2017-01-06T05:59:14.774Z,1026.04
2017-01-06T05:59:55.310Z,1026.04
2017-01-06T06:00:35.836Z,1026.06
2017-01-06T06:01:16.373Z,1026.03
2017-01-06T06:01:56.871Z,1026.01
2017-01-06T06:02:37.401Z,1026.02
2017-01-06T06:03:17.933Z,1026.07
2017-01-06T06:03:58.501Z,1026
2017-01-06T06:04:39.055Z,1026.06
2017-01-06T06:05:19.599Z,1026.08
2017-01-06T06:06:00.103Z,1026.06
2017-01-06T06:06:40.597Z,1026.05
2017-01-06T06:07:21.143Z,1026.07
2017-01-06T06:08:01.671Z,1026.05
2017-01-06T06:08:42.174Z,1026.13
2017-01-06T06:09:22.700Z,1026.13
2017-01-06T06:10:03.199Z,1026.12
2017-01-06T06:10:43.779Z,1026.13
2017-01-06T06:11:24.301Z,1026.1
2017-01-06T06:12:04.841Z,1026.13
2017-01-06T06:12:45.414Z,1026.1
2017-01-06T06:13:25.870Z,1026.09
2017-01-06T06:14:06.418Z,1026.15
2017-01-06T06:14:46.941Z,1026.15
2017-01-06T06:15:27.425Z,1026.14
2017-01-06T06:16:07.992Z,1026.19
2017-01-06T06:16:48.510Z,1026.16
2017-01-06T06:17:29.038Z,1026.21
2017-01-06T06:18:09.553Z,1026.19
2017-01-06T06:18:50.084Z,1026.16
2017-01-06T06:19:30.607Z,1026.19
2017-01-06T06:20:11.141Z,1026.21
2017-01-06T06:20:51.678Z,1026.16
2017-01-06T06:21:32.224Z,1026.18
2017-01-06T06:22:12.746Z,1026.17
2017-01-06T06:22:53.254Z,1026.19
2017-01-06T06:23:33.797Z,1026.15
2017-01-06T06:24:14.313Z,1026.18
2017-01-06T06:24:54.826Z,1026.2
2017-01-06T06:25:35.349Z,1026.17
2017-01-06T06:26:15.898Z,1026.22
2017-01-06T06:26:56.418Z,1026.16
2017-01-06T06:27:36.946Z,1026.18
2017-01-06T06:28:17.490Z,1026.17
2017-01-06T06:28:58.013Z,1026.2
2017-01-06T06:29:38.554Z,1026.22
2017-01-06T06:30:19.056Z,1026.2
2017-01-06T06:30:59.552Z,1026.23
2017-01-06T06:31:40.068Z,1026.29
2017-01-06T06:32:20.586Z,1026.2
2017-01-06T06:33:01.146Z,1026.21
2017-01-06T06:33:41.684Z,1026.19
2017-01-06T06:34:22.194Z,1026.14
2017-01-06T06:35:02.717Z,1026.2
2017-01-06T06:35:43.241Z,1026.25
2017-01-06T06:36:23.775Z,1026.17
2017-01-06T06:37:04.319Z,1026.21
2017-01-06T06:37:44.867Z,1026.24
2017-01-06T06:38:25.357Z,1026.21
2017-01-06T06:39:05.898Z,1026.26
2017-01-06T06:39:46.451Z,1026.26
2017-01-06T06:40:26.971Z,1026.22
2017-01-06T06:41:07.503Z,1026.24
2017-01-06T06:41:48.034Z,1026.24
2017-01-06T06:42:28.535Z,1026.27
2017-01-06T06:43:09.113Z,1026.26
2017-01-06T06:43:49.610Z,1026.3
2017-01-06T06:44:30.108Z,1026.26
2017-01-06T06:45:10.630Z,1026.28
2017-01-06T06:45:51.183Z,1026.31
2017-01-06T06:46:31.718Z,1026.32
2017-01-06T06:47:12.248Z,1026.37
2017-01-06T06:47:52.801Z,1026.31
2017-01-06T06:48:33.306Z,1026.35
2017-01-06T06:49:13.814Z,1026.3
2017-01-06T06:49:54.365Z,1026.35
2017-01-06T06:50:34.855Z,1026.38
2017-01-06T06:51:15.383Z,1026.32
2017-01-06T06:51:55.968Z,1026.31
2017-01-06T06:52:36.522Z,1026.35
2017-01-06T06:53:17.033Z,1026.39
2017-01-06T06:53:57.549Z,1026.33
2017-01-06T06:54:38.108Z,1026.39
2017-01-06T06:55:18.612Z,1026.38
2017-01-06T06:55:59.133Z,1026.41
2017-01-06T06:56:39.699Z,1026.48
2017-01-06T06:57:20.199Z,1026.44
2017-01-06T06:58:00.709Z,1026.44
2017-01-06T06:58:41.267Z,1026.47
2017-01-06T06:59:21.821Z,1026.45
2017-01-06T07:00:02.362Z,1026.54
2017-01-06T07:00:42.892Z,1026.51
2017-01-06T07:01:23.431Z,1026.54
2017-01-06T07:02:03.973Z,1026.58
2017-01-06T07:02:44.548Z,1026.62
2017-01-06T07:03:25.010Z,1026.6
2017-01-06T07:04:05.573Z,1026.64
2017-01-06T07:04:46.101Z,1026.68
2017-01-06T07:05:26.636Z,1026.67
2017-01-06T07:06:07.173Z,1026.62
2017-01-06T07:06:47.696Z,1026.67
2017-01-06T07:07:28.236Z,1026.6
2017-01-06T07:08:08.759Z,1026.66
2017-01-06T07:08:49.274Z,1026.69
2017-01-06T07:09:29.798Z,1026.68
2017-01-06T07:10:10.332Z,1026.68
2017-01-06T07:10:50.918Z,1026.66
2017-01-06T07:11:31.439Z,1026.71
2017-01-06T07:12:11.962Z,1026.71
2017-01-06T07:12:52.520Z,1026.74
2017-01-06T07:13:33.009Z,1026.76
2017-01-06T07:14:13.580Z,1026.79
2017-01-06T07:14:54.137Z,1026.81
2017-01-06T07:15:34.695Z,1026.88
2017-01-06T07:16:15.188Z,1026.82
2017-01-06T07:16:55.718Z,1026.88
2017-01-06T07:17:36.268Z,1026.81
2017-01-06T07:18:16.805Z,1026.86
2017-01-06T07:18:57.319Z,1026.83
2017-01-06T07:19:37.873Z,1026.89
2017-01-06T07:20:18.392Z,1026.81
2017-01-06T07:20:58.920Z,1026.84
2017-01-06T07:21:39.458Z,1026.85
2017-01-06T07:22:19.988Z,1026.85
2017-01-06T07:23:00.512Z,1026.87
2017-01-06T07:23:41.068Z,1026.94
2017-01-06T07:24:21.609Z,1026.9
2017-01-06T07:25:02.102Z,1026.96
2017-01-06T07:25:42.607Z,1026.94
2017-01-06T07:26:23.113Z,1026.88
2017-01-06T07:27:03.633Z,1026.89
2017-01-06T07:27:44.164Z,1026.94
2017-01-06T07:28:24.679Z,1026.97
2017-01-06T07:29:05.206Z,1026.93
2017-01-06T07:29:45.737Z,1026.99
2017-01-06T07:30:26.268Z,1027.01
2017-01-06T07:31:06.773Z,1027.04
2017-01-06T07:31:47.281Z,1027.07
2017-01-06T07:32:27.803Z,1027.06
2017-01-06T07:33:08.336Z,1027.07
2017-01-06T07:33:48.863Z,1027.09
2017-01-06T07:34:29.417Z,1027.06
2017-01-06T07:35:09.962Z,1027.12
2017-01-06T07:35:50.481Z,1027.12
2017-01-06T07:36:30.984Z,1027.11
2017-01-06T07:37:11.508Z,1027.14
2017-01-06T07:37:52.082Z,1027.15
2017-01-06T07:38:32.588Z,1027.19
2017-01-06T07:39:13.155Z,1027.12
2017-01-06T07:39:53.705Z,1027.14
2017-01-06T07:40:34.271Z,1027.19
2017-01-06T07:41:14.759Z,1027.18
2017-01-06T07:41:55.257Z,1027.22
2017-01-06T07:42:35.793Z,1027.27
2017-01-06T07:43:16.330Z,1027.23
2017-01-06T07:43:56.865Z,1027.22
2017-01-06T07:44:37.396Z,1027.25
2017-01-06T07:45:17.922Z,1027.3
2017-01-06T07:45:58.468Z,1027.32
2017-01-06T07:46:38.964Z,1027.31
2017-01-06T07:47:19.509Z,1027.29
2017-01-06T07:48:00.020Z,1027.3
2017-01-06T07:48:40.546Z,1027.3
2017-01-06T07:49:21.100Z,1027.31
2017-01-06T07:50:01.702Z,1027.33
2017-01-06T07:50:42.153Z,1027.34
2017-01-06T07:51:23.817Z,1027.33
2017-01-06T07:52:04.338Z,1027.37
2017-01-06T07:52:44.854Z,1027.39
2017-01-06T07:53:25.354Z,1027.35
2017-01-06T07:54:05.917Z,1027.32
2017-01-06T07:54:46.474Z,1027.38
2017-01-06T07:55:27.000Z,1027.34
2017-01-06T07:56:07.551Z,1027.37
2017-01-06T07:56:48.074Z,1027.38
2017-01-06T07:57:28.621Z,1027.32
2017-01-06T07:58:09.164Z,1027.34
2017-01-06T07:58:49.709Z,1027.38
2017-01-06T07:59:30.220Z,1027.34
2017-01-06T08:00:10.722Z,1027.37
2017-01-06T08:00:51.255Z,1027.45
2017-01-06T08:01:31.791Z,1027.42
2017-01-06T08:02:12.363Z,1027.43
2017-01-06T08:02:52.894Z,1027.45
2017-01-06T08:03:33.420Z,1027.41
2017-01-06T08:04:13.970Z,1027.44
2017-01-06T08:04:54.537Z,1027.47
2017-01-06T08:05:35.035Z,1027.47
2017-01-06T08:06:15.548Z,1027.49
2017-01-06T08:06:56.134Z,1027.47
2017-01-06T08:07:36.658Z,1027.43
2017-01-06T08:08:17.198Z,1027.5
2017-01-06T08:08:57.729Z,1027.53
2017-01-06T08:09:38.271Z,1027.58
2017-01-06T08:10:18.857Z,1027.53
2017-01-06T08:10:59.492Z,1027.5
2017-01-06T08:11:40.054Z,1027.54
2017-01-06T08:12:20.578Z,1027.55